Shrewton, United Kingdom
Current Conditions -  °F | °C
As of 1:50 AM on Saturday 29 Nov 2014 (Local Time) from EGDM Reporting Station
Haze Haze  
Wind Chill: 50°   Ceiling: 12000
Heat Index: 50°   Visibility: 6mi
Dew Point: 48°   Wind: 13mph
Humidity: 94%   Direction: 80°E
Pressure: 29.68"   Gusts: NA
Location:  51.19°N, 1.9°W
Report Text: EGDM 290150Z AUTO 08011KT 9000 BR OVC120/// 10/09 Q1005
Loading
Personal Weather Stations






























Interactive Weather Map New forecast layout! Learn more

10-Day Weather Forecast

Advertisements
Track Severe Weather on mobile